sensor_id;sensor_type;location;lat;lon;timestamp;temperature;humidity
17728;DHT22;8984;49.268;12.302;2024-02-28T00:02:14;8.70;99.90
17728;DHT22;8984;49.268;12.302;2024-02-28T00:04:43;8.70;99.90
17728;DHT22;8984;49.268;12.302;2024-02-28T00:07:13;8.70;99.90
17728;DHT22;8984;49.268;12.302;2024-02-28T00:09:46;8.70;99.90
17728;DHT22;8984;49.268;12.302;2024-02-28T00:12:23;8.60;99.90
17728;DHT22;8984;49.268;12.302;2024-02-28T00:15:20;8.40;99.90
17728;DHT22;8984;49.268;12.302;2024-02-28T00:18:07;8.40;99.90
17728;DHT22;8984;49.268;12.302;2024-02-28T00:20:37;8.30;99.90
17728;DHT22;8984;49.268;12.302;2024-02-28T00:23:26;8.30;99.90
17728;DHT22;8984;49.268;12.302;2024-02-28T00:25:54;8.40;99.90
17728;DHT22;8984;49.268;12.302;2024-02-28T00:28:45;8.40;99.90
17728;DHT22;8984;49.268;12.302;2024-02-28T00:31:18;8.40;99.90
17728;DHT22;8984;49.268;12.302;2024-02-28T00:33:50;8.40;99.90
17728;DHT22;8984;49.268;12.302;2024-02-28T00:36:22;8.40;99.90
17728;DHT22;8984;49.268;12.302;2024-02-28T00:39:00;8.40;99.90
17728;DHT22;8984;49.268;12.302;2024-02-28T00:41:34;8.40;99.90
17728;DHT22;8984;49.268;12.302;2024-02-28T00:44:02;8.40;99.90
17728;DHT22;8984;49.268;12.302;2024-02-28T00:46:39;8.10;99.90
17728;DHT22;8984;49.268;12.302;2024-02-28T00:49:15;8.30;99.90
17728;DHT22;8984;49.268;12.302;2024-02-28T00:51:56;8.30;99.90
17728;DHT22;8984;49.268;12.302;2024-02-28T00:54:39;8.30;99.90
17728;DHT22;8984;49.268;12.302;2024-02-28T01:00:28;8.30;99.90
17728;DHT22;8984;49.268;12.302;2024-02-28T01:02:58;8.30;99.90
17728;DHT22;8984;49.268;12.302;2024-02-28T01:05:32;8.30;99.90
17728;DHT22;8984;49.268;12.302;2024-02-28T01:08:07;8.20;99.90
17728;DHT22;8984;49.268;12.302;2024-02-28T01:10:42;8.20;99.90
17728;DHT22;8984;49.268;12.302;2024-02-28T01:13:26;8.30;99.90
17728;DHT22;8984;49.268;12.302;2024-02-28T01:16:01;8.20;99.90
17728;DHT22;8984;49.268;12.302;2024-02-28T01:18:47;8.20;99.90
17728;DHT22;8984;49.268;12.302;2024-02-28T01:21:21;8.20;99.90
17728;DHT22;8984;49.268;12.302;2024-02-28T01:24:10;8.30;99.90
17728;DHT22;8984;49.268;12.302;2024-02-28T01:26:40;8.30;99.90
17728;DHT22;8984;49.268;12.302;2024-02-28T01:29:09;8.30;99.90
17728;DHT22;8984;49.268;12.302;2024-02-28T01:31:48;8.30;99.90
17728;DHT22;8984;49.268;12.302;2024-02-28T01:34:21;8.30;99.90
17728;DHT22;8984;49.268;12.302;2024-02-28T01:36:53;8.30;99.90
17728;DHT22;8984;49.268;12.302;2024-02-28T01:39:37;8.30;99.90
17728;DHT22;8984;49.268;12.302;2024-02-28T01:42:08;8.30;99.90
17728;DHT22;8984;49.268;12.302;2024-02-28T01:44:44;8.40;99.90
17728;DHT22;8984;49.268;12.302;2024-02-28T01:47:15;8.30;99.90
17728;DHT22;8984;49.268;12.302;2024-02-28T01:49:48;8.30;99.90
17728;DHT22;8984;49.268;12.302;2024-02-28T01:52:35;8.30;99.90
17728;DHT22;8984;49.268;12.302;2024-02-28T01:55:04;8.30;99.90
17728;DHT22;8984;49.268;12.302;2024-02-28T01:57:34;8.30;99.90
17728;DHT22;8984;49.268;12.302;2024-02-28T02:00:05;8.30;99.90
17728;DHT22;8984;49.268;12.302;2024-02-28T02:02:34;8.30;99.90
17728;DHT22;8984;49.268;12.302;2024-02-28T02:05:03;8.40;99.90
17728;DHT22;8984;49.268;12.302;2024-02-28T02:07:51;8.40;99.90
17728;DHT22;8984;49.268;12.302;2024-02-28T02:10:33;8.40;99.90
17728;DHT22;8984;49.268;12.302;2024-02-28T02:13:11;8.50;99.90
17728;DHT22;8984;49.268;12.302;2024-02-28T02:15:40;8.50;99.90
17728;DHT22;8984;49.268;12.302;2024-02-28T02:18:13;8.50;99.90
17728;DHT22;8984;49.268;12.302;2024-02-28T02:21:02;8.60;99.90
17728;DHT22;8984;49.268;12.302;2024-02-28T02:23:38;8.60;99.90
17728;DHT22;8984;49.268;12.302;2024-02-28T02:26:10;8.60;99.90
17728;DHT22;8984;49.268;12.302;2024-02-28T02:28:56;8.60;99.90
17728;DHT22;8984;49.268;12.302;2024-02-28T02:31:37;8.70;99.90
17728;DHT22;8984;49.268;12.302;2024-02-28T02:34:15;8.70;99.90
17728;DHT22;8984;49.268;12.302;2024-02-28T02:36:44;8.70;99.90
17728;DHT22;8984;49.268;12.302;2024-02-28T02:39:24;8.70;99.90
17728;DHT22;8984;49.268;12.302;2024-02-28T02:41:52;8.80;99.90
17728;DHT22;8984;49.268;12.302;2024-02-28T02:44:24;8.70;99.90
17728;DHT22;8984;49.268;12.302;2024-02-28T02:47:32;8.70;99.90
17728;DHT22;8984;49.268;12.302;2024-02-28T02:50:16;8.70;99.90
17728;DHT22;8984;49.268;12.302;2024-02-28T02:52:44;8.70;99.90
17728;DHT22;8984;49.268;12.302;2024-02-28T02:55:29;8.70;99.90
17728;DHT22;8984;49.268;12.302;2024-02-28T02:57:59;8.70;99.90
17728;DHT22;8984;49.268;12.302;2024-02-28T03:00:26;8.60;99.90
17728;DHT22;8984;49.268;12.302;2024-02-28T03:02:56;8.60;99.90
17728;DHT22;8984;49.268;12.302;2024-02-28T03:05:31;8.60;99.90
17728;DHT22;8984;49.268;12.302;2024-02-28T03:08:00;8.60;99.90
17728;DHT22;8984;49.268;12.302;2024-02-28T03:10:46;8.80;99.90
17728;DHT22;8984;49.268;12.302;2024-02-28T03:13:14;8.60;99.90
17728;DHT22;8984;49.268;12.302;2024-02-28T03:15:44;8.60;99.90
17728;DHT22;8984;49.268;12.302;2024-02-28T03:18:20;8.70;99.90
17728;DHT22;8984;49.268;12.302;2024-02-28T03:20:50;8.70;99.90
17728;DHT22;8984;49.268;12.302;2024-02-28T03:23:24;8.70;99.90
17728;DHT22;8984;49.268;12.302;2024-02-28T03:26:14;8.60;99.90
17728;DHT22;8984;49.268;12.302;2024-02-28T03:28:42;8.60;99.90
17728;DHT22;8984;49.268;12.302;2024-02-28T03:31:12;8.50;99.90
17728;DHT22;8984;49.268;12.302;2024-02-28T03:33:40;8.40;99.90
17728;DHT22;8984;49.268;12.302;2024-02-28T03:36:18;8.30;99.90
17728;DHT22;8984;49.268;12.302;2024-02-28T03:38:48;8.30;99.90
17728;DHT22;8984;49.268;12.302;2024-02-28T03:41:18;8.20;99.90
17728;DHT22;8984;49.268;12.302;2024-02-28T03:43:54;8.20;99.90
17728;DHT22;8984;49.268;12.302;2024-02-28T03:46:40;7.90;99.90
17728;DHT22;8984;49.268;12.302;2024-02-28T03:49:12;8.00;99.90
17728;DHT22;8984;49.268;12.302;2024-02-28T03:52:04;7.90;99.90
17728;DHT22;8984;49.268;12.302;2024-02-28T03:54:46;8.00;99.90
17728;DHT22;8984;49.268;12.302;2024-02-28T03:57:18;7.90;99.90
17728;DHT22;8984;49.268;12.302;2024-02-28T04:02:45;7.90;99.90
17728;DHT22;8984;49.268;12.302;2024-02-28T04:05:23;8.00;99.90
17728;DHT22;8984;49.268;12.302;2024-02-28T04:08:02;7.90;99.90
17728;DHT22;8984;49.268;12.302;2024-02-28T04:10:59;7.80;99.90
17728;DHT22;8984;49.268;12.302;2024-02-28T04:13:42;7.80;99.90
17728;DHT22;8984;49.268;12.302;2024-02-28T04:16:30;7.80;99.90
17728;DHT22;8984;49.268;12.302;2024-02-28T04:19:32;7.80;99.90
17728;DHT22;8984;49.268;12.302;2024-02-28T04:21:59;7.90;99.90
17728;DHT22;8984;49.268;12.302;2024-02-28T04:24:26;7.90;99.90
17728;DHT22;8984;49.268;12.302;2024-02-28T04:26:53;7.80;99.90
17728;DHT22;8984;49.268;12.302;2024-02-28T04:29:20;7.80;99.90
17728;DHT22;8984;49.268;12.302;2024-02-28T04:31:46;7.80;99.90
17728;DHT22;8984;49.268;12.302;2024-02-28T04:34:13;7.70;99.90
17728;DHT22;8984;49.268;12.302;2024-02-28T04:36:55;7.60;99.90
17728;DHT22;8984;49.268;12.302;2024-02-28T04:39:32;7.70;99.90
17728;DHT22;8984;49.268;12.302;2024-02-28T04:42:17;7.50;99.90
17728;DHT22;8984;49.268;12.302;2024-02-28T04:44:54;7.60;99.90
17728;DHT22;8984;49.268;12.302;2024-02-28T04:47:50;7.70;99.90
17728;DHT22;8984;49.268;12.302;2024-02-28T04:50:20;7.50;99.90
17728;DHT22;8984;49.268;12.302;2024-02-28T04:52:58;7.50;99.90
17728;DHT22;8984;49.268;12.302;2024-02-28T04:55:36;7.40;99.90
17728;DHT22;8984;49.268;12.302;2024-02-28T04:58:12;7.40;99.90
17728;DHT22;8984;49.268;12.302;2024-02-28T05:00:46;7.50;99.90
17728;DHT22;8984;49.268;12.302;2024-02-28T05:03:15;7.50;99.90
17728;DHT22;8984;49.268;12.302;2024-02-28T05:05:50;7.50;99.90
17728;DHT22;8984;49.268;12.302;2024-02-28T05:08:23;7.60;99.90
17728;DHT22;8984;49.268;12.302;2024-02-28T05:10:52;7.40;99.90
17728;DHT22;8984;49.268;12.302;2024-02-28T05:13:23;7.40;99.90
17728;DHT22;8984;49.268;12.302;2024-02-28T05:15:52;7.50;99.90
17728;DHT22;8984;49.268;12.302;2024-02-28T05:18:22;7.20;99.90
17728;DHT22;8984;49.268;12.302;2024-02-28T05:20:53;7.20;99.90
17728;DHT22;8984;49.268;12.302;2024-02-28T05:23:23;7.30;99.90
17728;DHT22;8984;49.268;12.302;2024-02-28T05:26:00;7.20;99.90
17728;DHT22;8984;49.268;12.302;2024-02-28T05:28:33;7.30;99.90
17728;DHT22;8984;49.268;12.302;2024-02-28T05:31:20;7.40;99.90
17728;DHT22;8984;49.268;12.302;2024-02-28T05:33:51;7.40;99.90
17728;DHT22;8984;49.268;12.302;2024-02-28T05:36:24;7.50;99.90
17728;DHT22;8984;49.268;12.302;2024-02-28T05:39:03;7.50;99.90
17728;DHT22;8984;49.268;12.302;2024-02-28T05:41:55;7.40;99.90
17728;DHT22;8984;49.268;12.302;2024-02-28T05:44:26;7.60;99.90
17728;DHT22;8984;49.268;12.302;2024-02-28T05:47:08;7.40;99.90
17728;DHT22;8984;49.268;12.302;2024-02-28T05:49:59;7.50;99.90
17728;DHT22;8984;49.268;12.302;2024-02-28T05:52:31;7.50;99.90
17728;DHT22;8984;49.268;12.302;2024-02-28T05:55:00;7.60;99.90
17728;DHT22;8984;49.268;12.302;2024-02-28T05:57:43;7.60;99.90
17728;DHT22;8984;49.268;12.302;2024-02-28T06:00:35;7.70;99.90
17728;DHT22;8984;49.268;12.302;2024-02-28T06:03:13;7.80;99.90
17728;DHT22;8984;49.268;12.302;2024-02-28T06:05:46;7.70;99.90
17728;DHT22;8984;49.268;12.302;2024-02-28T06:08:15;7.70;99.90
17728;DHT22;8984;49.268;12.302;2024-02-28T06:11:01;7.80;99.90
17728;DHT22;8984;49.268;12.302;2024-02-28T06:13:31;7.80;99.90
17728;DHT22;8984;49.268;12.302;2024-02-28T06:16:12;7.90;99.90
17728;DHT22;8984;49.268;12.302;2024-02-28T06:18:42;7.90;99.90
17728;DHT22;8984;49.268;12.302;2024-02-28T06:21:13;8.00;99.90
17728;DHT22;8984;49.268;12.302;2024-02-28T06:24:06;8.00;99.90
17728;DHT22;8984;49.268;12.302;2024-02-28T06:26:37;8.10;99.90
17728;DHT22;8984;49.268;12.302;2024-02-28T06:29:05;8.10;99.90
17728;DHT22;8984;49.268;12.302;2024-02-28T06:32:11;8.00;99.90
17728;DHT22;8984;49.268;12.302;2024-02-28T06:34:42;8.10;99.90
17728;DHT22;8984;49.268;12.302;2024-02-28T06:37:26;8.00;99.90
17728;DHT22;8984;49.268;12.302;2024-02-28T06:40:02;8.10;99.90
17728;DHT22;8984;49.268;12.302;2024-02-28T06:42:35;8.10;99.90
17728;DHT22;8984;49.268;12.302;2024-02-28T06:45:10;8.10;99.90
17728;DHT22;8984;49.268;12.302;2024-02-28T06:47:40;8.10;99.90
17728;DHT22;8984;49.268;12.302;2024-02-28T06:50:12;8.10;99.90
17728;DHT22;8984;49.268;12.302;2024-02-28T06:52:41;8.20;99.90
17728;DHT22;8984;49.268;12.302;2024-02-28T06:55:10;8.20;99.90
17728;DHT22;8984;49.268;12.302;2024-02-28T06:58:04;8.20;99.90
17728;DHT22;8984;49.268;12.302;2024-02-28T07:00:37;8.30;99.90
17728;DHT22;8984;49.268;12.302;2024-02-28T07:03:13;8.20;99.90
17728;DHT22;8984;49.268;12.302;2024-02-28T07:05:49;8.30;99.90
17728;DHT22;8984;49.268;12.302;2024-02-28T07:08:19;8.30;99.90
17728;DHT22;8984;49.268;12.302;2024-02-28T07:10:48;8.40;99.90
17728;DHT22;8984;49.268;12.302;2024-02-28T07:13:22;8.40;99.90
17728;DHT22;8984;49.268;12.302;2024-02-28T07:15:53;8.40;99.90
17728;DHT22;8984;49.268;12.302;2024-02-28T07:18:34;8.40;99.90
17728;DHT22;8984;49.268;12.302;2024-02-28T07:21:05;8.30;99.90
17728;DHT22;8984;49.268;12.302;2024-02-28T07:23:35;8.30;99.90
17728;DHT22;8984;49.268;12.302;2024-02-28T07:26:07;8.30;99.90
17728;DHT22;8984;49.268;12.302;2024-02-28T07:28:40;8.30;99.90
17728;DHT22;8984;49.268;12.302;2024-02-28T07:31:14;8.50;99.90
17728;DHT22;8984;49.268;12.302;2024-02-28T07:33:51;8.30;99.90
17728;DHT22;8984;49.268;12.302;2024-02-28T07:36:20;8.40;99.90
17728;DHT22;8984;49.268;12.302;2024-02-28T07:38:50;8.40;99.90
17728;DHT22;8984;49.268;12.302;2024-02-28T07:41:20;8.50;99.90
17728;DHT22;8984;49.268;12.302;2024-02-28T07:43:56;8.50;99.90
17728;DHT22;8984;49.268;12.302;2024-02-28T07:46:49;8.50;99.90
17728;DHT22;8984;49.268;12.302;2024-02-28T07:49:22;8.70;99.90
17728;DHT22;8984;49.268;12.302;2024-02-28T07:51:51;8.40;99.90
17728;DHT22;8984;49.268;12.302;2024-02-28T07:54:22;8.40;99.90
17728;DHT22;8984;49.268;12.302;2024-02-28T07:56:50;8.50;99.90
17728;DHT22;8984;49.268;12.302;2024-02-28T07:59:20;8.50;99.90
17728;DHT22;8984;49.268;12.302;2024-02-28T08:01:49;8.50;99.90
17728;DHT22;8984;49.268;12.302;2024-02-28T08:04:36;8.50;99.90
17728;DHT22;8984;49.268;12.302;2024-02-28T08:07:09;8.50;99.90
17728;DHT22;8984;49.268;12.302;2024-02-28T08:09:41;8.40;99.90
17728;DHT22;8984;49.268;12.302;2024-02-28T08:12:10;8.40;99.90
17728;DHT22;8984;49.268;12.302;2024-02-28T08:14:40;8.50;99.90
17728;DHT22;8984;49.268;12.302;2024-02-28T08:17:36;8.40;99.90
17728;DHT22;8984;49.268;12.302;2024-02-28T08:20:24;8.50;99.90
17728;DHT22;8984;49.268;12.302;2024-02-28T08:22:53;8.40;99.90
17728;DHT22;8984;49.268;12.302;2024-02-28T08:25:23;8.40;99.90
17728;DHT22;8984;49.268;12.302;2024-02-28T08:28:01;8.30;99.90
17728;DHT22;8984;49.268;12.302;2024-02-28T08:31:01;8.30;99.90
17728;DHT22;8984;49.268;12.302;2024-02-28T08:33:29;7.80;99.90
17728;DHT22;8984;49.268;12.302;2024-02-28T08:36:17;8.00;99.90
17728;DHT22;8984;49.268;12.302;2024-02-28T08:38:46;7.90;99.90
17728;DHT22;8984;49.268;12.302;2024-02-28T08:41:23;8.00;99.90
17728;DHT22;8984;49.268;12.302;2024-02-28T08:43:51;8.10;99.90
17728;DHT22;8984;49.268;12.302;2024-02-28T08:46:23;7.90;99.90
17728;DHT22;8984;49.268;12.302;2024-02-28T08:48:55;8.00;99.90
17728;DHT22;8984;49.268;12.302;2024-02-28T08:51:38;8.20;99.90
17728;DHT22;8984;49.268;12.302;2024-02-28T08:54:09;8.20;99.90
17728;DHT22;8984;49.268;12.302;2024-02-28T08:56:38;8.30;99.90
17728;DHT22;8984;49.268;12.302;2024-02-28T08:59:11;8.30;99.90
17728;DHT22;8984;49.268;12.302;2024-02-28T09:01:44;8.30;99.90
17728;DHT22;8984;49.268;12.302;2024-02-28T09:04:20;8.30;99.90
17728;DHT22;8984;49.268;12.302;2024-02-28T09:06:50;8.30;99.90
17728;DHT22;8984;49.268;12.302;2024-02-28T09:09:23;8.50;99.90
17728;DHT22;8984;49.268;12.302;2024-02-28T09:11:50;8.50;99.90
17728;DHT22;8984;49.268;12.302;2024-02-28T09:14:18;8.50;99.90
17728;DHT22;8984;49.268;12.302;2024-02-28T09:16:48;8.40;99.90
17728;DHT22;8984;49.268;12.302;2024-02-28T09:19:19;8.50;99.90
17728;DHT22;8984;49.268;12.302;2024-02-28T09:21:55;8.60;99.90
17728;DHT22;8984;49.268;12.302;2024-02-28T09:24:23;8.70;99.90
17728;DHT22;8984;49.268;12.302;2024-02-28T09:26:53;8.80;99.90
17728;DHT22;8984;49.268;12.302;2024-02-28T09:29:22;8.90;99.90
17728;DHT22;8984;49.268;12.302;2024-02-28T09:31:58;8.80;99.90
17728;DHT22;8984;49.268;12.302;2024-02-28T09:34:42;8.90;99.90
17728;DHT22;8984;49.268;12.302;2024-02-28T09:37:10;9.00;99.90
17728;DHT22;8984;49.268;12.302;2024-02-28T09:39:38;8.90;99.90
17728;DHT22;8984;49.268;12.302;2024-02-28T09:42:06;9.00;99.90
17728;DHT22;8984;49.268;12.302;2024-02-28T09:44:59;8.90;99.90
17728;DHT22;8984;49.268;12.302;2024-02-28T09:47:36;9.10;99.90
17728;DHT22;8984;49.268;12.302;2024-02-28T09:50:05;9.20;99.90
17728;DHT22;8984;49.268;12.302;2024-02-28T09:52:34;9.20;99.90
17728;DHT22;8984;49.268;12.302;2024-02-28T09:55:02;9.10;99.90
17728;DHT22;8984;49.268;12.302;2024-02-28T09:57:34;9.20;99.90
17728;DHT22;8984;49.268;12.302;2024-02-28T10:00:11;9.30;99.90
17728;DHT22;8984;49.268;12.302;2024-02-28T10:02:47;9.40;99.90
17728;DHT22;8984;49.268;12.302;2024-02-28T10:05:29;9.40;99.90
17728;DHT22;8984;49.268;12.302;2024-02-28T10:08:00;9.40;99.90
17728;DHT22;8984;49.268;12.302;2024-02-28T10:10:32;9.30;99.90
17728;DHT22;8984;49.268;12.302;2024-02-28T10:13:02;9.40;99.90
17728;DHT22;8984;49.268;12.302;2024-02-28T10:15:36;9.40;99.90
17728;DHT22;8984;49.268;12.302;2024-02-28T10:18:20;9.50;99.90
17728;DHT22;8984;49.268;12.302;2024-02-28T10:20:53;9.50;99.90
17728;DHT22;8984;49.268;12.302;2024-02-28T10:23:26;9.70;99.90
17728;DHT22;8984;49.268;12.302;2024-02-28T10:25:57;9.70;99.90
17728;DHT22;8984;49.268;12.302;2024-02-28T10:28:31;9.60;99.90
17728;DHT22;8984;49.268;12.302;2024-02-28T10:31:10;9.40;99.90
17728;DHT22;8984;49.268;12.302;2024-02-28T10:33:59;9.40;99.90
17728;DHT22;8984;49.268;12.302;2024-02-28T10:36:30;9.50;99.90
17728;DHT22;8984;49.268;12.302;2024-02-28T10:39:00;9.60;99.90
17728;DHT22;8984;49.268;12.302;2024-02-28T10:41:31;9.60;99.90
17728;DHT22;8984;49.268;12.302;2024-02-28T10:44:04;9.70;99.90
17728;DHT22;8984;49.268;12.302;2024-02-28T10:46:53;9.50;99.90
17728;DHT22;8984;49.268;12.302;2024-02-28T10:49:28;9.40;99.90
17728;DHT22;8984;49.268;12.302;2024-02-28T10:51:59;9.50;99.90
17728;DHT22;8984;49.268;12.302;2024-02-28T10:54:33;9.50;99.90
17728;DHT22;8984;49.268;12.302;2024-02-28T10:57:09;9.50;99.90
17728;DHT22;8984;49.268;12.302;2024-02-28T10:59:44;9.40;99.90
17728;DHT22;8984;49.268;12.302;2024-02-28T11:02:14;9.50;99.90
17728;DHT22;8984;49.268;12.302;2024-02-28T11:04:51;9.30;99.90
17728;DHT22;8984;49.268;12.302;2024-02-28T11:07:20;9.40;99.90
17728;DHT22;8984;49.268;12.302;2024-02-28T11:09:53;9.40;99.90
17728;DHT22;8984;49.268;12.302;2024-02-28T11:12:31;9.40;99.90
17728;DHT22;8984;49.268;12.302;2024-02-28T11:15:04;9.40;99.90
17728;DHT22;8984;49.268;12.302;2024-02-28T11:17:38;9.20;99.90
17728;DHT22;8984;49.268;12.302;2024-02-28T11:20:20;9.00;99.90
17728;DHT22;8984;49.268;12.302;2024-02-28T11:22:48;9.20;99.90
17728;DHT22;8984;49.268;12.302;2024-02-28T11:25:34;9.20;99.90
17728;DHT22;8984;49.268;12.302;2024-02-28T11:30:56;9.20;99.90
17728;DHT22;8984;49.268;12.302;2024-02-28T11:33:36;9.30;99.90
17728;DHT22;8984;49.268;12.302;2024-02-28T11:36:10;9.40;99.90
17728;DHT22;8984;49.268;12.302;2024-02-28T11:38:44;9.50;99.90
17728;DHT22;8984;49.268;12.302;2024-02-28T11:41:12;9.40;99.90
17728;DHT22;8984;49.268;12.302;2024-02-28T11:43:55;9.30;99.90
17728;DHT22;8984;49.268;12.302;2024-02-28T11:46:28;9.40;99.90
17728;DHT22;8984;49.268;12.302;2024-02-28T11:49:27;9.50;99.90
17728;DHT22;8984;49.268;12.302;2024-02-28T11:52:01;9.50;99.90
17728;DHT22;8984;49.268;12.302;2024-02-28T11:54:36;9.50;99.90
17728;DHT22;8984;49.268;12.302;2024-02-28T11:57:32;9.60;99.90
17728;DHT22;8984;49.268;12.302;2024-02-28T12:00:03;9.60;99.90
17728;DHT22;8984;49.268;12.302;2024-02-28T12:02:31;9.70;99.90
17728;DHT22;8984;49.268;12.302;2024-02-28T12:05:00;9.80;99.90
17728;DHT22;8984;49.268;12.302;2024-02-28T12:07:27;10.00;99.90
17728;DHT22;8984;49.268;12.302;2024-02-28T12:09:54;10.10;99.90
17728;DHT22;8984;49.268;12.302;2024-02-28T12:12:22;10.40;99.90
17728;DHT22;8984;49.268;12.302;2024-02-28T12:14:50;10.30;99.90
17728;DHT22;8984;49.268;12.302;2024-02-28T12:17:17;10.30;99.90
17728;DHT22;8984;49.268;12.302;2024-02-28T12:19:44;10.20;99.90
17728;DHT22;8984;49.268;12.302;2024-02-28T12:22:11;10.30;99.90
17728;DHT22;8984;49.268;12.302;2024-02-28T12:24:38;10.40;99.90
17728;DHT22;8984;49.268;12.302;2024-02-28T12:27:05;10.30;99.90
17728;DHT22;8984;49.268;12.302;2024-02-28T12:29:32;10.20;99.90
17728;DHT22;8984;49.268;12.302;2024-02-28T12:32:00;10.20;99.90
17728;DHT22;8984;49.268;12.302;2024-02-28T12:34:27;9.80;99.90
17728;DHT22;8984;49.268;12.302;2024-02-28T12:36:54;9.80;99.90
17728;DHT22;8984;49.268;12.302;2024-02-28T12:39:20;9.80;99.90
17728;DHT22;8984;49.268;12.302;2024-02-28T12:41:49;9.70;99.90
17728;DHT22;8984;49.268;12.302;2024-02-28T12:44:16;9.80;99.90
17728;DHT22;8984;49.268;12.302;2024-02-28T12:46:43;9.80;99.90
17728;DHT22;8984;49.268;12.302;2024-02-28T12:49:11;9.60;99.90
17728;DHT22;8984;49.268;12.302;2024-02-28T12:51:39;9.80;99.90
17728;DHT22;8984;49.268;12.302;2024-02-28T12:54:07;9.80;99.90
17728;DHT22;8984;49.268;12.302;2024-02-28T12:56:34;9.80;99.90
17728;DHT22;8984;49.268;12.302;2024-02-28T12:59:01;9.90;99.90
17728;DHT22;8984;49.268;12.302;2024-02-28T13:01:28;9.90;99.90
17728;DHT22;8984;49.268;12.302;2024-02-28T13:03:55;10.00;99.90
17728;DHT22;8984;49.268;12.302;2024-02-28T13:06:24;9.80;99.90
17728;DHT22;8984;49.268;12.302;2024-02-28T13:08:51;9.80;99.90
17728;DHT22;8984;49.268;12.302;2024-02-28T13:11:18;9.80;99.90
17728;DHT22;8984;49.268;12.302;2024-02-28T13:13:46;10.00;99.90
17728;DHT22;8984;49.268;12.302;2024-02-28T13:16:13;9.70;99.90
17728;DHT22;8984;49.268;12.302;2024-02-28T13:18:40;9.70;99.90
17728;DHT22;8984;49.268;12.302;2024-02-28T13:21:07;9.70;99.90
17728;DHT22;8984;49.268;12.302;2024-02-28T13:23:36;9.90;99.90
17728;DHT22;8984;49.268;12.302;2024-02-28T13:26:04;9.90;99.90
17728;DHT22;8984;49.268;12.302;2024-02-28T13:28:31;9.70;99.90
17728;DHT22;8984;49.268;12.302;2024-02-28T13:30:59;9.80;99.90
17728;DHT22;8984;49.268;12.302;2024-02-28T13:33:27;10.00;99.90
17728;DHT22;8984;49.268;12.302;2024-02-28T13:35:54;10.00;99.90
17728;DHT22;8984;49.268;12.302;2024-02-28T13:38:21;10.00;99.90
17728;DHT22;8984;49.268;12.302;2024-02-28T13:40:50;10.10;99.90
17728;DHT22;8984;49.268;12.302;2024-02-28T13:43:17;10.10;99.90
17728;DHT22;8984;49.268;12.302;2024-02-28T13:45:47;10.20;99.90
17728;DHT22;8984;49.268;12.302;2024-02-28T13:48:16;10.30;99.90
17728;DHT22;8984;49.268;12.302;2024-02-28T13:50:44;10.30;99.90
17728;DHT22;8984;49.268;12.302;2024-02-28T13:53:11;10.20;99.90
17728;DHT22;8984;49.268;12.302;2024-02-28T13:55:38;10.20;99.90
17728;DHT22;8984;49.268;12.302;2024-02-28T13:58:06;10.10;99.90
17728;DHT22;8984;49.268;12.302;2024-02-28T14:00:34;10.30;99.90
17728;DHT22;8984;49.268;12.302;2024-02-28T14:03:01;10.30;99.90
17728;DHT22;8984;49.268;12.302;2024-02-28T14:05:27;10.30;99.90
17728;DHT22;8984;49.268;12.302;2024-02-28T14:07:54;10.30;99.90
17728;DHT22;8984;49.268;12.302;2024-02-28T14:10:22;10.30;99.90
17728;DHT22;8984;49.268;12.302;2024-02-28T14:12:49;10.30;99.90
17728;DHT22;8984;49.268;12.302;2024-02-28T14:15:19;10.20;99.90
17728;DHT22;8984;49.268;12.302;2024-02-28T14:17:49;10.30;99.90
17728;DHT22;8984;49.268;12.302;2024-02-28T14:20:17;10.30;99.90
17728;DHT22;8984;49.268;12.302;2024-02-28T14:22:44;10.20;99.90
17728;DHT22;8984;49.268;12.302;2024-02-28T14:25:12;10.40;99.90
17728;DHT22;8984;49.268;12.302;2024-02-28T14:27:39;10.20;99.90
17728;DHT22;8984;49.268;12.302;2024-02-28T14:30:08;10.10;99.90
17728;DHT22;8984;49.268;12.302;2024-02-28T14:32:37;10.10;99.90
17728;DHT22;8984;49.268;12.302;2024-02-28T14:35:05;10.10;99.90
17728;DHT22;8984;49.268;12.302;2024-02-28T14:37:32;10.00;99.90
17728;DHT22;8984;49.268;12.302;2024-02-28T14:39:59;10.00;99.90
17728;DHT22;8984;49.268;12.302;2024-02-28T14:42:29;10.10;99.90
17728;DHT22;8984;49.268;12.302;2024-02-28T14:44:57;10.10;99.90
17728;DHT22;8984;49.268;12.302;2024-02-28T14:47:25;10.10;99.90
17728;DHT22;8984;49.268;12.302;2024-02-28T14:49:59;10.20;99.90
17728;DHT22;8984;49.268;12.302;2024-02-28T14:52:31;10.30;99.90
17728;DHT22;8984;49.268;12.302;2024-02-28T14:55:03;10.30;99.90
17728;DHT22;8984;49.268;12.302;2024-02-28T14:57:39;10.40;99.90
17728;DHT22;8984;49.268;12.302;2024-02-28T15:00:12;10.50;99.90
17728;DHT22;8984;49.268;12.302;2024-02-28T15:02:58;10.50;99.90
17728;DHT22;8984;49.268;12.302;2024-02-28T15:05:42;10.50;99.90
17728;DHT22;8984;49.268;12.302;2024-02-28T15:08:15;10.50;99.90
17728;DHT22;8984;49.268;12.302;2024-02-28T15:10:56;10.50;99.90
17728;DHT22;8984;49.268;12.302;2024-02-28T15:13:23;10.20;99.90
17728;DHT22;8984;49.268;12.302;2024-02-28T15:15:50;10.30;99.90
17728;DHT22;8984;49.268;12.302;2024-02-28T15:18:33;10.20;99.90
17728;DHT22;8984;49.268;12.302;2024-02-28T15:21:18;10.20;99.90
17728;DHT22;8984;49.268;12.302;2024-02-28T15:23:48;10.10;99.90
17728;DHT22;8984;49.268;12.302;2024-02-28T15:26:40;10.10;99.90
17728;DHT22;8984;49.268;12.302;2024-02-28T15:29:14;10.10;99.90
17728;DHT22;8984;49.268;12.302;2024-02-28T15:31:42;10.00;99.90
17728;DHT22;8984;49.268;12.302;2024-02-28T15:34:17;10.20;99.90
17728;DHT22;8984;49.268;12.302;2024-02-28T15:36:48;10.00;99.90
17728;DHT22;8984;49.268;12.302;2024-02-28T15:39:43;10.20;99.90
17728;DHT22;8984;49.268;12.302;2024-02-28T15:42:13;10.10;99.90
17728;DHT22;8984;49.268;12.302;2024-02-28T15:44:53;10.10;99.90
17728;DHT22;8984;49.268;12.302;2024-02-28T15:47:26;10.30;99.90
17728;DHT22;8984;49.268;12.302;2024-02-28T15:50:01;10.20;99.90
17728;DHT22;8984;49.268;12.302;2024-02-28T15:52:36;10.30;99.90
17728;DHT22;8984;49.268;12.302;2024-02-28T15:55:22;10.20;99.90
17728;DHT22;8984;49.268;12.302;2024-02-28T15:58:09;10.20;99.90
17728;DHT22;8984;49.268;12.302;2024-02-28T16:00:50;10.20;99.90
17728;DHT22;8984;49.268;12.302;2024-02-28T16:03:31;10.20;99.90
17728;DHT22;8984;49.268;12.302;2024-02-28T16:06:18;10.20;99.90
17728;DHT22;8984;49.268;12.302;2024-02-28T16:08:54;10.30;99.90
17728;DHT22;8984;49.268;12.302;2024-02-28T16:11:48;10.30;99.90
17728;DHT22;8984;49.268;12.302;2024-02-28T16:14:15;10.30;99.90
17728;DHT22;8984;49.268;12.302;2024-02-28T16:16:47;10.30;99.90
17728;DHT22;8984;49.268;12.302;2024-02-28T16:19:17;10.30;99.90
17728;DHT22;8984;49.268;12.302;2024-02-28T16:22:01;10.20;99.90
17728;DHT22;8984;49.268;12.302;2024-02-28T16:24:33;10.20;99.90
17728;DHT22;8984;49.268;12.302;2024-02-28T16:27:10;10.30;99.90
17728;DHT22;8984;49.268;12.302;2024-02-28T16:29:57;10.30;99.90
17728;DHT22;8984;49.268;12.302;2024-02-28T16:32:26;10.30;99.90
17728;DHT22;8984;49.268;12.302;2024-02-28T16:35:14;10.30;99.90
17728;DHT22;8984;49.268;12.302;2024-02-28T16:37:41;10.30;99.90